createdAt,value
2023-04-16T00:01:36.006Z,31.52
2023-04-16T00:04:03.401Z,26.80
2023-04-16T00:06:30.518Z,30.23
2023-04-16T00:08:57.234Z,34.38
2023-04-16T00:11:24.346Z,26.20
2023-04-16T00:13:51.082Z,27.25
2023-04-16T00:16:17.907Z,29.42
2023-04-16T00:18:44.702Z,33.22
2023-04-16T00:21:11.572Z,30.60
2023-04-16T00:23:38.437Z,29.52
2023-04-16T00:26:05.219Z,27.73
2023-04-16T00:28:31.924Z,31.05
2023-04-16T00:31:01.278Z,35.80
2023-04-16T00:33:30.039Z,28.85
2023-04-16T00:35:56.920Z,27.58
2023-04-16T00:38:23.832Z,29.65
2023-04-16T00:40:50.601Z,31.45
2023-04-16T00:43:23.028Z,28.88
2023-04-16T00:45:50.778Z,28.48
2023-04-16T00:48:17.848Z,30.20
2023-04-16T00:50:44.697Z,29.52
2023-04-16T00:53:11.567Z,28.70
2023-04-16T00:55:39.657Z,28.65
2023-04-16T00:58:06.871Z,32.05
2023-04-16T01:00:33.627Z,33.45
2023-04-16T01:03:00.623Z,28.65
2023-04-16T01:05:27.495Z,28.92
2023-04-16T01:07:54.231Z,29.15
2023-04-16T01:10:21.070Z,33.47
2023-04-16T01:12:47.884Z,30.15
2023-04-16T01:15:14.972Z,29.67
2023-04-16T01:17:41.865Z,33.20
2023-04-16T01:20:08.955Z,26.13
2023-04-16T01:22:35.763Z,33.53
2023-04-16T01:25:02.497Z,34.60
2023-04-16T01:27:29.285Z,29.67
2023-04-16T01:29:56.405Z,29.77
2023-04-16T01:32:23.179Z,31.13
2023-04-16T01:34:50.036Z,29.50
2023-04-16T01:37:17.463Z,29.42
2023-04-16T01:39:44.191Z,30.17
2023-04-16T01:42:10.953Z,30.40
2023-04-16T01:44:37.781Z,29.35
2023-04-16T01:47:04.729Z,34.10
2023-04-16T01:49:31.785Z,31.00
2023-04-16T01:51:58.705Z,32.05
2023-04-16T01:54:26.116Z,29.98
2023-04-16T01:56:52.918Z,34.55
2023-04-16T01:59:20.501Z,33.58
2023-04-16T02:01:47.493Z,32.42
2023-04-16T02:04:14.377Z,33.78
2023-04-16T02:06:41.615Z,31.75
2023-04-16T02:09:08.596Z,34.72
2023-04-16T02:11:35.580Z,30.98
2023-04-16T02:14:02.393Z,31.13
2023-04-16T02:16:29.566Z,33.63
2023-04-16T02:18:56.384Z,31.35
2023-04-16T02:21:23.042Z,32.67
2023-04-16T02:23:51.938Z,33.03
2023-04-16T02:26:18.925Z,33.65
2023-04-16T02:28:45.735Z,35.15
2023-04-16T02:31:12.450Z,33.42
2023-04-16T02:33:39.214Z,33.20
2023-04-16T02:36:06.357Z,35.22
2023-04-16T02:38:33.113Z,36.53
2023-04-16T02:40:59.828Z,31.98
2023-04-16T02:43:26.556Z,36.72
2023-04-16T02:45:53.272Z,38.05
2023-04-16T02:48:20.112Z,37.00
2023-04-16T02:50:46.789Z,34.83
2023-04-16T02:53:13.536Z,32.63
2023-04-16T02:55:40.280Z,34.80
2023-04-16T02:58:07.046Z,34.38
2023-04-16T03:00:33.806Z,34.67
2023-04-16T03:03:00.619Z,35.13
2023-04-16T03:05:27.692Z,34.20
2023-04-16T03:07:56.729Z,33.58
2023-04-16T03:10:24.124Z,41.90
2023-04-16T03:12:50.948Z,35.95
2023-04-16T03:15:18.006Z,37.08
2023-04-16T03:17:44.900Z,38.28
2023-04-16T03:20:11.860Z,39.72
2023-04-16T03:22:39.394Z,39.10
2023-04-16T03:25:07.854Z,36.05
2023-04-16T03:27:34.935Z,34.08
2023-04-16T03:30:02.219Z,37.78
2023-04-16T03:32:29.451Z,32.47
2023-04-16T03:34:56.292Z,37.40
2023-04-16T03:37:23.096Z,34.38
2023-04-16T03:39:49.878Z,33.42
2023-04-16T03:42:16.856Z,36.58
2023-04-16T03:44:43.784Z,36.25
2023-04-16T03:47:10.533Z,34.95
2023-04-16T03:49:37.288Z,36.40
2023-04-16T03:52:04.125Z,37.10
2023-04-16T03:54:30.909Z,33.83
2023-04-16T03:56:58.332Z,37.47
2023-04-16T03:59:25.234Z,38.67
2023-04-16T04:01:52.138Z,40.30
2023-04-16T04:04:19.099Z,33.83
2023-04-16T04:06:47.037Z,39.28
2023-04-16T04:09:15.119Z,39.15
2023-04-16T04:11:42.594Z,39.95
2023-04-16T04:14:09.402Z,35.45
2023-04-16T04:16:36.132Z,36.28
2023-04-16T04:19:02.914Z,36.58
2023-04-16T04:21:30.050Z,42.00
2023-04-16T04:23:56.988Z,37.53
2023-04-16T04:26:23.814Z,37.25
2023-04-16T04:28:50.551Z,37.13
2023-04-16T04:31:17.377Z,35.50
2023-04-16T04:33:44.498Z,40.67
2023-04-16T04:36:11.560Z,39.88
2023-04-16T04:38:38.354Z,36.80
2023-04-16T04:41:05.115Z,43.50
2023-04-16T04:43:31.999Z,35.70
2023-04-16T04:45:58.847Z,38.28
2023-04-16T04:48:26.773Z,34.63
2023-04-16T04:50:53.894Z,39.53
2023-04-16T04:53:20.746Z,38.67
2023-04-16T04:55:50.911Z,36.97
2023-04-16T04:58:19.830Z,34.30
2023-04-16T05:00:46.720Z,38.08
2023-04-16T05:03:19.139Z,33.33
2023-04-16T05:05:45.933Z,38.10
2023-04-16T05:08:12.674Z,38.28
2023-04-16T05:10:39.465Z,39.25
2023-04-16T05:13:06.294Z,40.08
2023-04-16T05:15:33.096Z,36.97
2023-04-16T05:17:59.922Z,35.03
2023-04-16T05:20:26.708Z,38.33
2023-04-16T05:22:55.418Z,32.85
2023-04-16T05:25:22.516Z,40.00
2023-04-16T05:27:49.301Z,39.67
2023-04-16T05:30:16.100Z,35.47
2023-04-16T05:32:42.889Z,40.70
2023-04-16T05:35:09.950Z,38.00
2023-04-16T05:37:36.876Z,41.92
2023-04-16T05:40:04.036Z,41.53
2023-04-16T05:42:31.104Z,38.15
2023-04-16T05:44:57.878Z,41.25
2023-04-16T05:47:24.938Z,38.33
2023-04-16T05:49:51.747Z,37.50
2023-04-16T05:52:18.600Z,34.85
2023-04-16T05:54:45.386Z,34.78
2023-04-16T05:57:14.026Z,38.40
2023-04-16T05:59:40.841Z,32.60
2023-04-16T06:02:07.744Z,36.08
2023-04-16T06:04:35.829Z,39.65
2023-04-16T06:07:02.634Z,31.35
2023-04-16T06:09:30.519Z,36.53
2023-04-16T06:11:58.083Z,35.00
2023-04-16T06:14:24.839Z,40.40
2023-04-16T06:16:51.573Z,35.88
2023-04-16T06:19:18.307Z,36.78
2023-04-16T06:21:45.446Z,33.25
2023-04-16T06:24:13.295Z,31.05
2023-04-16T06:26:40.362Z,33.63
2023-04-16T06:29:07.201Z,30.60
2023-04-16T06:31:34.187Z,33.63
2023-04-16T06:34:01.294Z,34.17
2023-04-16T06:36:29.060Z,30.45
2023-04-16T06:38:55.835Z,34.05
2023-04-16T06:41:25.385Z,28.08
2023-04-16T06:43:52.383Z,28.42
2023-04-16T06:46:19.159Z,34.17
2023-04-16T06:48:45.968Z,26.85
2023-04-16T06:51:13.242Z,27.27
2023-04-16T06:53:40.121Z,30.52
2023-04-16T06:56:07.054Z,30.70
2023-04-16T06:58:34.036Z,33.33
2023-04-16T07:01:02.606Z,30.67
2023-04-16T07:03:29.695Z,25.38
2023-04-16T07:05:56.847Z,29.27
2023-04-16T07:08:24.453Z,30.52
2023-04-16T07:10:51.669Z,26.75
2023-04-16T07:13:18.616Z,25.35
2023-04-16T07:15:45.399Z,24.00
2023-04-16T07:18:12.148Z,27.42
2023-04-16T07:20:39.017Z,25.38
2023-04-16T07:23:05.704Z,22.95
2023-04-16T07:25:32.438Z,21.70
2023-04-16T07:27:59.177Z,24.90
2023-04-16T07:30:32.586Z,24.42
2023-04-16T07:33:00.247Z,25.20
2023-04-16T07:35:27.363Z,22.75
2023-04-16T07:37:54.119Z,24.88
2023-04-16T07:40:20.981Z,23.65
2023-04-16T07:42:47.813Z,22.85
2023-04-16T07:45:14.602Z,21.42
2023-04-16T07:47:41.464Z,23.48
2023-04-16T07:50:08.759Z,23.70
2023-04-16T07:52:35.575Z,25.08
2023-04-16T07:55:02.344Z,23.83
2023-04-16T07:57:29.120Z,22.58
2023-04-16T07:59:55.937Z,24.33
2023-04-16T08:02:22.846Z,22.20
2023-04-16T08:04:49.919Z,24.38
2023-04-16T08:07:16.806Z,23.15
2023-04-16T08:09:52.426Z,21.02
2023-04-16T08:12:19.560Z,22.23
2023-04-16T08:14:46.605Z,19.52
2023-04-16T08:17:14.263Z,22.70
2023-04-16T08:19:41.892Z,18.95
2023-04-16T08:22:08.708Z,22.63
2023-04-16T08:24:35.402Z,23.88
2023-04-16T08:27:15.113Z,18.20
2023-04-16T08:29:44.930Z,19.10
2023-04-16T08:32:12.327Z,20.10
2023-04-16T08:34:39.049Z,22.50
2023-04-16T08:37:06.392Z,21.95
2023-04-16T08:39:33.570Z,19.52
2023-04-16T08:42:04.931Z,16.52
2023-04-16T08:44:33.972Z,23.90
2023-04-16T08:47:01.372Z,17.00
2023-04-16T08:49:28.784Z,20.60
2023-04-16T08:51:57.026Z,20.60
2023-04-16T08:54:37.268Z,21.98
2023-04-16T08:57:06.655Z,21.73
2023-04-16T08:59:34.822Z,19.50
2023-04-16T09:02:02.566Z,17.90
2023-04-16T09:04:29.998Z,20.58
2023-04-16T09:06:58.238Z,16.52
2023-04-16T09:09:29.017Z,16.75
2023-04-16T09:11:56.215Z,19.20
2023-04-16T09:14:23.041Z,21.63
2023-04-16T09:16:54.717Z,19.02
2023-04-16T09:19:21.632Z,19.20
2023-04-16T09:21:48.646Z,18.70
2023-04-16T09:24:15.700Z,21.63
2023-04-16T09:26:45.469Z,18.40
2023-04-16T09:29:12.400Z,17.00
2023-04-16T09:31:39.296Z,17.58
2023-04-16T09:34:09.786Z,18.25
2023-04-16T09:36:37.249Z,17.02
2023-04-16T09:39:04.630Z,15.70
2023-04-16T09:41:33.233Z,14.32
2023-04-16T09:44:02.065Z,16.10
2023-04-16T09:46:42.451Z,15.85
2023-04-16T09:49:17.610Z,16.92
2023-04-16T09:51:46.980Z,16.30
2023-04-16T09:54:13.733Z,15.05
2023-04-16T09:56:42.529Z,15.98
2023-04-16T09:59:17.704Z,15.30
2023-04-16T10:01:46.740Z,16.92
2023-04-16T10:04:14.061Z,17.38
2023-04-16T10:06:41.553Z,20.30
2023-04-16T10:09:09.580Z,15.38
2023-04-16T10:11:37.628Z,16.30
2023-04-16T10:14:04.373Z,14.82
2023-04-16T10:16:32.343Z,13.15
2023-04-16T10:18:59.758Z,13.70
2023-04-16T10:21:33.648Z,17.13
2023-04-16T10:24:01.173Z,12.50
2023-04-16T10:26:30.631Z,15.57
2023-04-16T10:28:58.848Z,14.25
2023-04-16T10:31:27.386Z,13.90
2023-04-16T10:33:54.531Z,11.93
2023-04-16T10:36:26.621Z,13.93
2023-04-16T10:38:58.277Z,15.00
2023-04-16T10:41:29.444Z,13.93
2023-04-16T10:44:10.823Z,14.00
2023-04-16T10:46:39.088Z,13.00
2023-04-16T10:49:25.866Z,15.57
2023-04-16T10:52:00.370Z,11.98
2023-04-16T10:54:31.277Z,13.80
2023-04-16T10:57:01.654Z,11.68
2023-04-16T10:59:35.098Z,13.60
2023-04-16T11:02:08.103Z,15.15
2023-04-16T11:04:37.727Z,14.40
2023-04-16T11:07:17.440Z,14.38
2023-04-16T11:09:48.204Z,12.57
2023-04-16T11:12:16.656Z,12.27
2023-04-16T11:14:43.614Z,14.15
2023-04-16T11:17:10.468Z,15.60
2023-04-16T11:19:38.168Z,13.48
2023-04-16T11:22:05.633Z,12.60
2023-04-16T11:24:33.150Z,14.60
2023-04-16T11:27:00.332Z,11.98
2023-04-16T11:29:27.413Z,12.02
2023-04-16T11:31:55.175Z,12.70
2023-04-16T11:34:22.270Z,10.55
2023-04-16T11:36:51.429Z,12.65
2023-04-16T11:39:19.167Z,12.57
2023-04-16T11:41:47.728Z,12.90
2023-04-16T11:44:27.945Z,12.35
2023-04-16T11:46:54.877Z,12.75
2023-04-16T11:49:29.218Z,13.27
2023-04-16T11:51:56.910Z,11.00
2023-04-16T11:54:25.208Z,13.25
2023-04-16T11:56:53.322Z,12.23
2023-04-16T11:59:23.082Z,10.98
2023-04-16T12:01:52.368Z,13.25
2023-04-16T12:04:20.777Z,11.40
2023-04-16T12:07:09.653Z,11.60
2023-04-16T12:09:40.146Z,12.15
2023-04-16T12:12:30.827Z,10.70
2023-04-16T12:15:03.699Z,10.57
2023-04-16T12:17:32.833Z,12.85
2023-04-16T12:20:01.798Z,11.18
2023-04-16T12:22:37.592Z,11.73
2023-04-16T12:25:17.871Z,14.95
2023-04-16T12:27:54.127Z,10.68
2023-04-16T12:30:28.953Z,12.13
2023-04-16T12:33:18.569Z,11.73
2023-04-16T12:35:45.811Z,12.00
2023-04-16T12:38:15.024Z,13.30
2023-04-16T12:40:41.903Z,11.68
2023-04-16T12:43:09.877Z,10.35
2023-04-16T12:45:37.844Z,11.32
2023-04-16T12:48:04.834Z,9.48
2023-04-16T12:50:31.781Z,9.90
2023-04-16T12:52:59.033Z,10.60
2023-04-16T12:55:26.232Z,10.02
2023-04-16T12:57:53.057Z,11.32
2023-04-16T13:00:20.476Z,15.07
2023-04-16T13:02:47.438Z,10.98
2023-04-16T13:05:19.204Z,9.52
2023-04-16T13:07:46.306Z,12.43
2023-04-16T13:10:13.782Z,11.27
2023-04-16T13:12:40.807Z,10.73
2023-04-16T13:15:08.310Z,12.38
2023-04-16T13:17:35.030Z,9.95
2023-04-16T13:20:01.839Z,12.77
2023-04-16T13:22:28.746Z,11.85
2023-04-16T13:24:55.568Z,13.73
2023-04-16T13:27:22.298Z,14.65
2023-04-16T13:29:49.147Z,11.25
2023-04-16T13:32:16.050Z,13.73
2023-04-16T13:34:42.902Z,13.60
2023-04-16T13:37:09.795Z,13.82
2023-04-16T13:39:37.443Z,12.00
2023-04-16T13:42:04.376Z,14.90
2023-04-16T13:44:31.110Z,12.82
2023-04-16T13:46:58.445Z,12.75
2023-04-16T13:49:25.300Z,11.90
2023-04-16T13:51:52.027Z,12.43
2023-04-16T13:54:18.796Z,10.98
2023-04-16T13:56:45.805Z,9.38
2023-04-16T13:59:12.809Z,7.50
2023-04-16T14:01:40.058Z,8.13
2023-04-16T14:04:07.326Z,10.45
2023-04-16T14:06:34.799Z,8.18
2023-04-16T14:09:02.067Z,9.57
2023-04-16T14:11:28.928Z,7.65
2023-04-16T14:13:55.829Z,8.70
2023-04-16T14:16:22.964Z,7.20
2023-04-16T14:18:52.059Z,6.93
2023-04-16T14:21:19.044Z,8.60
2023-04-16T14:23:45.839Z,8.35
2023-04-16T14:26:12.879Z,10.05
2023-04-16T14:28:40.852Z,9.55
2023-04-16T14:31:07.758Z,8.98
2023-04-16T14:33:34.658Z,8.98
2023-04-16T14:36:03.074Z,10.07
2023-04-16T14:38:31.237Z,10.00
2023-04-16T14:40:58.184Z,12.27
2023-04-16T14:43:24.969Z,11.05
2023-04-16T14:45:52.735Z,10.38
2023-04-16T14:48:19.826Z,14.82
2023-04-16T14:50:46.988Z,11.00
2023-04-16T14:53:13.979Z,11.52
2023-04-16T14:55:40.704Z,11.85
2023-04-16T14:58:07.410Z,12.10
2023-04-16T15:00:37.494Z,14.55
2023-04-16T15:03:05.019Z,13.93
2023-04-16T15:05:31.977Z,12.40
2023-04-16T15:07:58.859Z,10.77
2023-04-16T15:10:25.585Z,15.00
2023-04-16T15:12:52.417Z,12.65
2023-04-16T15:15:19.714Z,10.73
2023-04-16T15:17:46.516Z,12.40
2023-04-16T15:20:13.616Z,11.55
2023-04-16T15:22:40.682Z,14.30
2023-04-16T15:25:08.198Z,9.93
2023-04-16T15:27:34.994Z,11.70
2023-04-16T15:30:02.230Z,12.82
2023-04-16T15:32:29.205Z,11.57
2023-04-16T15:34:56.071Z,10.15
2023-04-16T15:37:23.528Z,11.18
2023-04-16T15:39:50.511Z,11.95
2023-04-16T15:42:17.469Z,12.27
2023-04-16T15:44:44.403Z,11.75
2023-04-16T15:47:11.181Z,13.38
2023-04-16T15:49:38.027Z,12.15
2023-04-16T15:52:05.021Z,12.15
2023-04-16T15:54:33.282Z,11.07
2023-04-16T15:57:00.040Z,12.35
2023-04-16T15:59:27.211Z,12.25
2023-04-16T16:01:54.265Z,12.27
2023-04-16T16:04:23.346Z,10.40
2023-04-16T16:06:50.483Z,11.85
2023-04-16T16:09:18.546Z,13.13
2023-04-16T16:11:45.588Z,14.77
2023-04-16T16:14:12.593Z,11.55
2023-04-16T16:16:40.294Z,14.27
2023-04-16T16:19:07.261Z,11.60
2023-04-16T16:21:34.302Z,13.23
2023-04-16T16:24:01.265Z,12.75
2023-04-16T16:26:28.888Z,11.07
2023-04-16T16:28:57.138Z,11.73
2023-04-16T16:31:24.560Z,13.40
2023-04-16T16:33:51.628Z,14.50
2023-04-16T16:36:18.543Z,13.10
2023-04-16T16:38:47.295Z,15.10
2023-04-16T16:41:14.320Z,14.00
2023-04-16T16:43:41.254Z,13.20
2023-04-16T16:46:09.833Z,11.77
2023-04-16T16:48:36.739Z,13.43
2023-04-16T16:51:03.728Z,12.63
2023-04-16T16:53:30.534Z,14.55
2023-04-16T16:55:57.241Z,15.57
2023-04-16T16:58:24.029Z,15.57
2023-04-16T17:00:50.864Z,13.00
2023-04-16T17:03:17.822Z,15.38
2023-04-16T17:05:44.658Z,18.48
2023-04-16T17:08:11.973Z,14.13
2023-04-16T17:10:38.685Z,14.30
2023-04-16T17:13:05.511Z,24.80
2023-04-16T17:15:32.298Z,15.82
2023-04-16T17:17:59.078Z,15.35
2023-04-16T17:20:26.182Z,15.57
2023-04-16T17:22:52.905Z,16.17
2023-04-16T17:25:19.778Z,13.73
2023-04-16T17:27:46.536Z,13.73
2023-04-16T17:30:15.205Z,15.40
2023-04-16T17:32:41.938Z,13.65
2023-04-16T17:35:10.014Z,17.70
2023-04-16T17:37:36.858Z,14.35
2023-04-16T17:40:07.427Z,13.93
2023-04-16T17:42:35.477Z,14.52
2023-04-16T17:45:03.043Z,16.60
2023-04-16T17:47:30.205Z,16.15
2023-04-16T17:49:56.988Z,16.42
2023-04-16T17:52:24.126Z,14.27
2023-04-16T17:54:50.926Z,13.57
2023-04-16T17:57:17.621Z,17.02
2023-04-16T17:59:44.353Z,13.10
2023-04-16T18:02:11.497Z,20.30
2023-04-16T18:04:38.517Z,16.48
2023-04-16T18:07:05.564Z,16.98
2023-04-16T18:09:32.387Z,15.10
2023-04-16T18:11:59.314Z,16.25
2023-04-16T18:14:26.176Z,13.45
2023-04-16T18:16:53.416Z,16.92
2023-04-16T18:19:20.546Z,16.75
2023-04-16T18:21:47.361Z,17.08
2023-04-16T18:24:15.391Z,16.67
2023-04-16T18:26:42.524Z,16.33
2023-04-16T18:29:13.749Z,18.42
2023-04-16T18:31:41.007Z,15.68
2023-04-16T18:34:08.065Z,16.58
2023-04-16T18:36:35.377Z,17.08
2023-04-16T18:39:02.765Z,14.77
2023-04-16T18:41:30.744Z,15.02
2023-04-16T18:43:57.710Z,18.77
2023-04-16T18:46:26.746Z,17.33
2023-04-16T18:48:53.751Z,17.30
2023-04-16T18:51:21.348Z,17.60
2023-04-16T18:53:48.658Z,19.20
2023-04-16T18:56:15.814Z,15.75
2023-04-16T18:58:43.306Z,18.98
2023-04-16T19:01:13.314Z,15.57
2023-04-16T19:03:40.362Z,17.15
2023-04-16T19:06:08.010Z,16.30
2023-04-16T19:08:34.853Z,16.25
2023-04-16T19:11:01.679Z,17.83
2023-04-16T19:13:30.304Z,15.40
2023-04-16T19:16:01.717Z,16.80
2023-04-16T19:18:28.707Z,17.27
2023-04-16T19:21:00.116Z,14.65
2023-04-16T19:25:56.332Z,17.88
2023-04-16T19:28:24.038Z,18.83
2023-04-16T19:30:52.105Z,16.95
2023-04-16T19:33:19.071Z,19.23
2023-04-16T19:35:46.906Z,18.13
2023-04-16T19:38:14.040Z,16.25
2023-04-16T19:40:44.827Z,15.68
2023-04-16T19:43:11.741Z,17.13
2023-04-16T19:45:46.254Z,20.17
2023-04-16T19:48:13.232Z,14.02
2023-04-16T19:50:41.440Z,17.58
2023-04-16T19:53:08.856Z,14.80
2023-04-16T19:55:36.469Z,17.65
2023-04-16T19:58:06.483Z,17.65
2023-04-16T20:00:38.202Z,17.00
2023-04-16T20:03:05.870Z,18.13
2023-04-16T20:05:32.817Z,14.30
2023-04-16T20:07:59.969Z,15.30
2023-04-16T20:10:27.718Z,19.88
2023-04-16T20:12:54.382Z,16.30
2023-04-16T20:15:21.639Z,16.77
2023-04-16T20:17:48.460Z,19.20
2023-04-16T20:20:16.431Z,16.05
2023-04-16T20:22:43.692Z,17.85
2023-04-16T20:25:10.820Z,20.77
2023-04-16T20:27:37.804Z,16.17
2023-04-16T20:30:06.206Z,15.10
2023-04-16T20:32:33.178Z,17.40
2023-04-16T20:35:00.241Z,17.83
2023-04-16T20:37:29.050Z,18.50
2023-04-16T20:39:56.084Z,20.25
2023-04-16T20:42:23.139Z,20.45
2023-04-16T20:44:56.515Z,17.40
2023-04-16T20:47:23.756Z,16.95
2023-04-16T20:49:52.671Z,19.10
2023-04-16T20:52:19.794Z,18.02
2023-04-16T20:54:47.149Z,20.08
2023-04-16T20:57:14.144Z,18.08
2023-04-16T20:59:40.931Z,18.30
2023-04-16T21:02:07.951Z,16.70
2023-04-16T21:04:34.923Z,20.02
2023-04-16T21:07:04.264Z,19.88
2023-04-16T21:09:31.604Z,21.38
2023-04-16T21:11:58.547Z,18.75
2023-04-16T21:14:25.343Z,21.35
2023-04-16T21:16:52.152Z,22.02
2023-04-16T21:19:18.955Z,18.90
2023-04-16T21:21:45.923Z,15.50
2023-04-16T21:24:12.691Z,18.85
2023-04-16T21:26:39.446Z,17.85
2023-04-16T21:29:06.165Z,19.13
2023-04-16T21:31:32.906Z,23.52
2023-04-16T21:33:59.989Z,19.60
2023-04-16T21:36:27.375Z,21.55
2023-04-16T21:38:54.180Z,21.67
2023-04-16T21:41:21.223Z,19.88
2023-04-16T21:43:47.941Z,19.10
2023-04-16T21:46:14.640Z,21.20
2023-04-16T21:48:41.418Z,19.42
2023-04-16T21:51:08.615Z,20.52
2023-04-16T21:53:35.490Z,19.50
2023-04-16T21:56:02.405Z,18.42
2023-04-16T21:58:29.206Z,18.42
2023-04-16T22:00:56.256Z,18.88
2023-04-16T22:03:27.650Z,19.60
2023-04-16T22:06:00.948Z,16.10
2023-04-16T22:08:31.386Z,22.23
2023-04-16T22:10:59.412Z,22.20
2023-04-16T22:13:26.624Z,20.10
2023-04-16T22:15:54.706Z,20.63
2023-04-16T22:18:26.782Z,19.20
2023-04-16T22:20:54.747Z,19.95
2023-04-16T22:23:25.394Z,18.75
2023-04-16T22:25:56.271Z,20.85
2023-04-16T22:28:23.252Z,19.73
2023-04-16T22:30:50.399Z,16.63
2023-04-16T22:33:17.227Z,19.13
2023-04-16T22:35:44.076Z,16.60
2023-04-16T22:38:10.780Z,16.77
2023-04-16T22:40:37.591Z,20.45
2023-04-16T22:43:04.863Z,20.20
2023-04-16T22:45:31.735Z,21.98
2023-04-16T22:47:58.629Z,22.77
2023-04-16T22:50:25.601Z,18.02
2023-04-16T22:52:52.253Z,19.92
2023-04-16T22:55:19.114Z,17.90
2023-04-16T22:57:45.938Z,21.73
2023-04-16T23:00:17.710Z,18.88
2023-04-16T23:05:12.077Z,19.33
2023-04-16T23:07:39.053Z,16.92
2023-04-16T23:10:08.199Z,21.73
2023-04-16T23:12:37.338Z,19.20
2023-04-16T23:15:06.487Z,17.02
2023-04-16T23:17:33.872Z,24.58
2023-04-16T23:20:01.092Z,19.92
2023-04-16T23:22:27.976Z,18.90
2023-04-16T23:24:54.778Z,19.30
2023-04-16T23:27:21.666Z,18.23
2023-04-16T23:29:48.482Z,19.13
2023-04-16T23:32:15.317Z,20.30
2023-04-16T23:34:42.130Z,18.42
2023-04-16T23:37:09.202Z,21.02
2023-04-16T23:39:36.121Z,20.73
2023-04-16T23:42:03.182Z,21.23
2023-04-16T23:44:29.945Z,20.98
2023-04-16T23:46:57.319Z,21.50
2023-04-16T23:49:24.651Z,22.60
2023-04-16T23:51:51.479Z,21.63
2023-04-16T23:54:18.406Z,24.10
2023-04-16T23:56:45.198Z,22.77
2023-04-16T23:59:12.285Z,21.55
